sensor_id;sensor_type;location;lat;lon;timestamp;pressure;altitude;pressure_sealevel;temperature;humidity
49178;BME280;35016;55.674;37.468;2022-11-20T00:00:23;98997.72;;;-0.66;72.47
49178;BME280;35016;55.674;37.468;2022-11-20T00:02:50;98995.25;;;-0.67;72.46
49178;BME280;35016;55.674;37.468;2022-11-20T00:05:17;99008.59;;;-0.60;72.25
49178;BME280;35016;55.674;37.468;2022-11-20T00:07:45;99002.84;;;-0.64;72.34
49178;BME280;35016;55.674;37.468;2022-11-20T00:10:18;99006.94;;;-0.62;72.74
49178;BME280;35016;55.674;37.468;2022-11-20T00:12:45;99003.88;;;-0.65;72.79
49178;BME280;35016;55.674;37.468;2022-11-20T00:15:12;99006.13;;;-0.62;72.56
49178;BME280;35016;55.674;37.468;2022-11-20T00:17:39;98998.13;;;-0.62;72.61
49178;BME280;35016;55.674;37.468;2022-11-20T00:20:06;98998.34;;;-0.64;72.50
49178;BME280;35016;55.674;37.468;2022-11-20T00:22:34;99011.06;;;-0.59;72.67
49178;BME280;35016;55.674;37.468;2022-11-20T00:25:01;99015.13;;;-0.63;72.08
49178;BME280;35016;55.674;37.468;2022-11-20T00:27:28;99008.59;;;-0.60;72.45
49178;BME280;35016;55.674;37.468;2022-11-20T00:29:55;99013.09;;;-0.61;72.50
49178;BME280;35016;55.674;37.468;2022-11-20T00:32:23;99002.03;;;-0.65;72.32
49178;BME280;35016;55.674;37.468;2022-11-20T00:34:50;99011.88;;;-0.58;72.41
49178;BME280;35016;55.674;37.468;2022-11-20T00:37:42;99008.03;;;-0.56;72.33
49178;BME280;35016;55.674;37.468;2022-11-20T00:40:40;99018.28;;;-0.53;72.52
49178;BME280;35016;55.674;37.468;2022-11-20T00:43:16;99018.28;;;-0.53;72.05
49178;BME280;35016;55.674;37.468;2022-11-20T00:45:43;99030.13;;;-0.55;71.97
49178;BME280;35016;55.674;37.468;2022-11-20T00:48:10;98994.03;;;-0.65;72.32
49178;BME280;35016;55.674;37.468;2022-11-20T00:50:37;99016.22;;;-0.57;72.43
49178;BME280;35016;55.674;37.468;2022-11-20T00:53:05;99025.19;;;-0.58;72.59
49178;BME280;35016;55.674;37.468;2022-11-20T00:55:33;99016.78;;;-0.62;72.54
49178;BME280;35016;55.674;37.468;2022-11-20T00:58:00;99013.06;;;-0.68;72.29
49178;BME280;35016;55.674;37.468;2022-11-20T01:00:30;99006.72;;;-0.73;72.61
49178;BME280;35016;55.674;37.468;2022-11-20T01:02:57;99003.22;;;-0.74;72.40
49178;BME280;35016;55.674;37.468;2022-11-20T01:05:24;99008.97;;;-0.70;72.30
49178;BME280;35016;55.674;37.468;2022-11-20T01:07:51;99012.25;;;-0.75;72.18
49178;BME280;35016;55.674;37.468;2022-11-20T01:10:18;99013.69;;;-0.72;72.34
49178;BME280;35016;55.674;37.468;2022-11-20T01:12:45;98999.50;;;-0.86;72.15
49178;BME280;35016;55.674;37.468;2022-11-20T01:15:33;98996.03;;;-0.86;72.30
49178;BME280;35016;55.674;37.468;2022-11-20T01:18:00;99003.41;;;-0.82;72.38
49178;BME280;35016;55.674;37.468;2022-11-20T01:20:27;99022.03;;;-0.82;71.96
49178;BME280;35016;55.674;37.468;2022-11-20T01:22:54;99029.78;;;-0.87;72.21
49178;BME280;35016;55.674;37.468;2022-11-20T01:25:21;99026.50;;;-0.89;72.15
49178;BME280;35016;55.674;37.468;2022-11-20T01:27:48;99021.38;;;-0.90;72.62
49178;BME280;35016;55.674;37.468;2022-11-20T01:30:15;99003.31;;;-1.02;72.37
49178;BME280;35016;55.674;37.468;2022-11-20T01:32:42;99007.63;;;-1.01;72.44
49178;BME280;35016;55.674;37.468;2022-11-20T01:35:09;99018.88;;;-0.99;72.28
49178;BME280;35016;55.674;37.468;2022-11-20T01:37:36;99012.13;;;-1.01;72.06
49178;BME280;35016;55.674;37.468;2022-11-20T01:40:04;99032.19;;;-0.99;72.39
49178;BME280;35016;55.674;37.468;2022-11-20T01:42:31;99022.56;;;-1.00;72.02
49178;BME280;35016;55.674;37.468;2022-11-20T01:48:11;99029.91;;;-1.02;72.03
49178;BME280;35016;55.674;37.468;2022-11-20T01:50:39;99016.38;;;-1.07;72.06
49178;BME280;35016;55.674;37.468;2022-11-20T01:53:10;99034.22;;;-1.01;71.92
49178;BME280;35016;55.674;37.468;2022-11-20T01:55:48;99027.22;;;-1.08;72.07
49178;BME280;35016;55.674;37.468;2022-11-20T01:58:22;99049.09;;;-1.13;71.90
49178;BME280;35016;55.674;37.468;2022-11-20T02:00:53;99034.16;;;-1.14;71.82
49178;BME280;35016;55.674;37.468;2022-11-20T02:03:20;99025.91;;;-1.19;71.82
49178;BME280;35016;55.674;37.468;2022-11-20T02:08:19;99056.53;;;-1.02;72.00
49178;BME280;35016;55.674;37.468;2022-11-20T02:10:46;99056.94;;;-0.98;72.09
49178;BME280;35016;55.674;37.468;2022-11-20T02:13:13;99058.16;;;-1.01;71.88
49178;BME280;35016;55.674;37.468;2022-11-20T02:16:00;99060.44;;;-0.98;71.81
49178;BME280;35016;55.674;37.468;2022-11-20T02:18:27;99048.53;;;-1.02;71.99
49178;BME280;35016;55.674;37.468;2022-11-20T02:21:09;99064.50;;;-1.02;71.53
49178;BME280;35016;55.674;37.468;2022-11-20T02:24:11;99063.72;;;-0.96;71.47
49178;BME280;35016;55.674;37.468;2022-11-20T02:26:52;99076.41;;;-0.98;71.83
49178;BME280;35016;55.674;37.468;2022-11-20T02:29:26;99070.25;;;-0.98;71.71
49178;BME280;35016;55.674;37.468;2022-11-20T02:31:55;99073.75;;;-0.98;72.09
49178;BME280;35016;55.674;37.468;2022-11-20T02:34:23;99079.25;;;-0.99;71.80
49178;BME280;35016;55.674;37.468;2022-11-20T02:36:51;99073.47;;;-1.09;71.36
49178;BME280;35016;55.674;37.468;2022-11-20T02:39:20;99085.16;;;-1.04;71.57
49178;BME280;35016;55.674;37.468;2022-11-20T02:41:47;99060.94;;;-1.15;71.78
49178;BME280;35016;55.674;37.468;2022-11-20T02:44:14;99077.97;;;-1.10;71.72
49178;BME280;35016;55.674;37.468;2022-11-20T02:46:41;99070.19;;;-1.11;71.70
49178;BME280;35016;55.674;37.468;2022-11-20T02:49:08;99084.69;;;-1.14;71.90
49178;BME280;35016;55.674;37.468;2022-11-20T02:51:35;99085.53;;;-1.13;71.85
49178;BME280;35016;55.674;37.468;2022-11-20T02:54:02;99089.81;;;-1.12;71.50
49178;BME280;35016;55.674;37.468;2022-11-20T02:56:30;99081.38;;;-1.16;71.88
49178;BME280;35016;55.674;37.468;2022-11-20T02:58:58;99079.00;;;-1.11;71.78
49178;BME280;35016;55.674;37.468;2022-11-20T03:01:24;99086.34;;;-1.13;71.60
49178;BME280;35016;55.674;37.468;2022-11-20T03:03:52;99088.19;;;-1.13;71.94
49178;BME280;35016;55.674;37.468;2022-11-20T03:06:21;99071.09;;;-1.26;71.74
49178;BME280;35016;55.674;37.468;2022-11-20T03:08:48;99079.94;;;-1.18;71.75
49178;BME280;35016;55.674;37.468;2022-11-20T03:11:15;99074.56;;;-1.25;71.51
49178;BME280;35016;55.674;37.468;2022-11-20T03:13:43;99096.69;;;-1.25;71.82
49178;BME280;35016;55.674;37.468;2022-11-20T03:16:16;99087.88;;;-1.25;71.79
49178;BME280;35016;55.674;37.468;2022-11-20T03:18:44;99086.22;;;-1.26;71.90
49178;BME280;35016;55.674;37.468;2022-11-20T03:21:13;99090.56;;;-1.18;71.58
49178;BME280;35016;55.674;37.468;2022-11-20T03:23:41;99098.56;;;-1.18;71.64
49178;BME280;35016;55.674;37.468;2022-11-20T03:26:14;99118.19;;;-1.19;71.77
49178;BME280;35016;55.674;37.468;2022-11-20T03:28:54;99099.03;;;-1.15;71.57
49178;BME280;35016;55.674;37.468;2022-11-20T03:31:24;99093.44;;;-1.20;71.69
49178;BME280;35016;55.674;37.468;2022-11-20T03:33:52;99102.03;;;-1.18;71.82
49178;BME280;35016;55.674;37.468;2022-11-20T03:36:20;99097.72;;;-1.19;71.61
49178;BME280;35016;55.674;37.468;2022-11-20T03:38:48;99102.63;;;-1.22;71.51
49178;BME280;35016;55.674;37.468;2022-11-20T03:41:24;99108.38;;;-1.19;71.42
49178;BME280;35016;55.674;37.468;2022-11-20T03:43:53;99091.78;;;-1.21;71.54
49178;BME280;35016;55.674;37.468;2022-11-20T03:46:21;99088.94;;;-1.19;71.62
49178;BME280;35016;55.674;37.468;2022-11-20T03:48:49;99103.25;;;-1.20;71.47
49178;BME280;35016;55.674;37.468;2022-11-20T03:51:23;99104.50;;;-1.16;71.57
49178;BME280;35016;55.674;37.468;2022-11-20T03:53:52;99104.25;;;-1.21;71.69
49178;BME280;35016;55.674;37.468;2022-11-20T03:56:23;99097.88;;;-1.27;71.41
49178;BME280;35016;55.674;37.468;2022-11-20T03:58:50;99089.88;;;-1.34;71.61
49178;BME280;35016;55.674;37.468;2022-11-20T04:01:19;99130.47;;;-1.18;71.39
49178;BME280;35016;55.674;37.468;2022-11-20T04:03:47;99118.81;;;-1.17;71.63
49178;BME280;35016;55.674;37.468;2022-11-20T04:06:30;99121.47;;;-1.17;71.25
49178;BME280;35016;55.674;37.468;2022-11-20T04:08:57;99126.59;;;-1.16;71.79
49178;BME280;35016;55.674;37.468;2022-11-20T04:11:27;99134.22;;;-1.13;71.65
49178;BME280;35016;55.674;37.468;2022-11-20T04:13:57;99120.72;;;-1.11;71.47
49178;BME280;35016;55.674;37.468;2022-11-20T04:16:26;99132.00;;;-1.09;71.38
49178;BME280;35016;55.674;37.468;2022-11-20T04:18:55;99137.94;;;-1.07;71.46
49178;BME280;35016;55.674;37.468;2022-11-20T04:21:23;99143.91;;;-1.05;71.28
49178;BME280;35016;55.674;37.468;2022-11-20T04:23:51;99123.59;;;-1.13;71.24
49178;BME280;35016;55.674;37.468;2022-11-20T04:26:21;99148.00;;;-1.03;71.29
49178;BME280;35016;55.674;37.468;2022-11-20T04:28:48;99150.03;;;-1.05;71.25
49178;BME280;35016;55.674;37.468;2022-11-20T04:31:18;99149.59;;;-1.08;71.36
49178;BME280;35016;55.674;37.468;2022-11-20T04:33:46;99129.84;;;-1.20;71.12
49178;BME280;35016;55.674;37.468;2022-11-20T04:36:22;99161.66;;;-1.12;71.20
49178;BME280;35016;55.674;37.468;2022-11-20T04:38:51;99138.72;;;-1.13;71.05
49178;BME280;35016;55.674;37.468;2022-11-20T04:41:29;99139.91;;;-1.16;71.04
49178;BME280;35016;55.674;37.468;2022-11-20T04:43:58;99148.66;;;-1.22;71.15
49178;BME280;35016;55.674;37.468;2022-11-20T04:46:31;99159.75;;;-1.18;71.25
49178;BME280;35016;55.674;37.468;2022-11-20T04:48:59;99176.59;;;-1.11;71.12
49178;BME280;35016;55.674;37.468;2022-11-20T04:51:26;99180.09;;;-1.11;70.96
49178;BME280;35016;55.674;37.468;2022-11-20T04:53:53;99172.69;;;-1.15;71.24
49178;BME280;35016;55.674;37.468;2022-11-20T04:56:20;99167.16;;;-1.14;70.97
49178;BME280;35016;55.674;37.468;2022-11-20T04:58:48;99186.34;;;-1.18;70.87
49178;BME280;35016;55.674;37.468;2022-11-20T05:01:17;99190.44;;;-1.16;71.20
49178;BME280;35016;55.674;37.468;2022-11-20T05:03:45;99186.34;;;-1.18;70.92
49178;BME280;35016;55.674;37.468;2022-11-20T05:06:14;99175.91;;;-1.20;70.81
49178;BME280;35016;55.674;37.468;2022-11-20T05:08:42;99183.94;;;-1.13;71.14
49178;BME280;35016;55.674;37.468;2022-11-20T05:11:12;99187.34;;;-1.19;70.87
49178;BME280;35016;55.674;37.468;2022-11-20T05:13:40;99193.31;;;-1.17;70.96
49178;BME280;35016;55.674;37.468;2022-11-20T05:16:15;99205.44;;;-1.15;71.15
49178;BME280;35016;55.674;37.468;2022-11-20T05:18:43;99194.41;;;-1.12;70.91
49178;BME280;35016;55.674;37.468;2022-11-20T05:21:10;99198.72;;;-1.11;70.71
49178;BME280;35016;55.674;37.468;2022-11-20T05:23:38;99215.09;;;-1.07;70.82
49178;BME280;35016;55.674;37.468;2022-11-20T05:26:07;99209.78;;;-1.07;71.21
49178;BME280;35016;55.674;37.468;2022-11-20T05:28:34;99199.91;;;-1.13;70.89
49178;BME280;35016;55.674;37.468;2022-11-20T05:31:07;99215.75;;;-1.05;70.97
49178;BME280;35016;55.674;37.468;2022-11-20T05:33:35;99222.66;;;-1.11;71.00
49178;BME280;35016;55.674;37.468;2022-11-20T05:36:03;99217.13;;;-1.09;70.94
49178;BME280;35016;55.674;37.468;2022-11-20T05:38:30;99218.59;;;-1.07;70.67
49178;BME280;35016;55.674;37.468;2022-11-20T05:43:36;99221.94;;;-0.98;70.93
49178;BME280;35016;55.674;37.468;2022-11-20T05:46:05;99249.16;;;-0.96;70.90
49178;BME280;35016;55.674;37.468;2022-11-20T05:48:34;99232.56;;;-0.98;71.10
49178;BME280;35016;55.674;37.468;2022-11-20T05:51:08;99232.97;;;-1.01;70.87
49178;BME280;35016;55.674;37.468;2022-11-20T05:53:39;99190.97;;;-1.27;70.92
49178;BME280;35016;55.674;37.468;2022-11-20T05:56:19;99265.19;;;-0.89;71.21
49178;BME280;35016;55.674;37.468;2022-11-20T05:58:48;99249.22;;;-0.89;71.06
49178;BME280;35016;55.674;37.468;2022-11-20T06:03:44;99246.50;;;-0.96;71.25
49178;BME280;35016;55.674;37.468;2022-11-20T06:06:15;99257.28;;;-0.83;71.02
49178;BME280;35016;55.674;37.468;2022-11-20T06:08:43;99270.41;;;-0.81;70.97
49178;BME280;35016;55.674;37.468;2022-11-20T06:11:12;99251.53;;;-0.86;70.95
49178;BME280;35016;55.674;37.468;2022-11-20T06:13:44;99260.06;;;-0.91;70.70
49178;BME280;35016;55.674;37.468;2022-11-20T06:16:16;99299.09;;;-0.77;71.00
49178;BME280;35016;55.674;37.468;2022-11-20T06:18:44;99258.38;;;-0.99;71.07
49178;BME280;35016;55.674;37.468;2022-11-20T06:21:18;99265.81;;;-0.87;70.71
49178;BME280;35016;55.674;37.468;2022-11-20T06:23:45;99289.91;;;-0.74;71.02
49178;BME280;35016;55.674;37.468;2022-11-20T06:26:16;99285.13;;;-0.85;70.66
49178;BME280;35016;55.674;37.468;2022-11-20T06:28:44;99273.25;;;-0.83;70.55
49178;BME280;35016;55.674;37.468;2022-11-20T06:31:17;99288.84;;;-0.80;71.02
49178;BME280;35016;55.674;37.468;2022-11-20T06:33:45;99289.91;;;-0.74;70.76
49178;BME280;35016;55.674;37.468;2022-11-20T06:36:14;99294.84;;;-0.71;70.61
49178;BME280;35016;55.674;37.468;2022-11-20T06:38:43;99281.09;;;-0.75;70.91
49178;BME280;35016;55.674;37.468;2022-11-20T06:41:19;99298.19;;;-0.63;71.04
49178;BME280;35016;55.674;37.468;2022-11-20T06:43:48;99270.25;;;-0.73;70.95
49178;BME280;35016;55.674;37.468;2022-11-20T06:46:16;99288.78;;;-0.58;70.76
49178;BME280;35016;55.674;37.468;2022-11-20T06:48:49;99286.84;;;-0.50;70.78
49178;BME280;35016;55.674;37.468;2022-11-20T06:51:16;99282.91;;;-0.54;70.50
49178;BME280;35016;55.674;37.468;2022-11-20T06:53:44;99275.56;;;-0.52;70.78
49178;BME280;35016;55.674;37.468;2022-11-20T06:56:12;99273.16;;;-0.40;70.54
49178;BME280;35016;55.674;37.468;2022-11-20T06:58:40;99271.53;;;-0.41;70.03
49178;BME280;35016;55.674;37.468;2022-11-20T07:01:10;99272.63;;;-0.29;70.63
49178;BME280;35016;55.674;37.468;2022-11-20T07:03:38;99276.56;;;-0.25;70.39
49178;BME280;35016;55.674;37.468;2022-11-20T07:06:06;99283.53;;;-0.24;70.01
49178;BME280;35016;55.674;37.468;2022-11-20T07:08:34;99326.22;;;-0.17;70.32
49178;BME280;35016;55.674;37.468;2022-11-20T07:11:03;99298.34;;;-0.15;70.02
49178;BME280;35016;55.674;37.468;2022-11-20T07:13:32;99284.16;;;-0.22;70.04
49178;BME280;35016;55.674;37.468;2022-11-20T07:16:04;99292.22;;;-0.09;69.81
49178;BME280;35016;55.674;37.468;2022-11-20T07:18:32;99276.44;;;-0.10;69.69
49178;BME280;35016;55.674;37.468;2022-11-20T07:21:01;99281.19;;;-0.06;69.89
49178;BME280;35016;55.674;37.468;2022-11-20T07:23:28;99291.25;;;-0.01;69.91
49178;BME280;35016;55.674;37.468;2022-11-20T07:25:55;99289.41;;;-0.01;69.71
49178;BME280;35016;55.674;37.468;2022-11-20T07:28:23;99279.94;;;-0.10;69.85
49178;BME280;35016;55.674;37.468;2022-11-20T07:30:53;99279.91;;;-0.16;69.55
49178;BME280;35016;55.674;37.468;2022-11-20T07:33:21;99300.63;;;-0.12;69.86
49178;BME280;35016;55.674;37.468;2022-11-20T07:35:48;99308.63;;;-0.12;69.48
49178;BME280;35016;55.674;37.468;2022-11-20T07:38:18;99307.63;;;-0.04;70.05
49178;BME280;35016;55.674;37.468;2022-11-20T07:40:45;99297.56;;;-0.09;69.60
49178;BME280;35016;55.674;37.468;2022-11-20T07:43:12;99294.28;;;-0.11;69.84
49178;BME280;35016;55.674;37.468;2022-11-20T07:45:42;99282.41;;;-0.08;69.86
49178;BME280;35016;55.674;37.468;2022-11-20T07:48:09;99304.22;;;0.02;69.70
49178;BME280;35016;55.674;37.468;2022-11-20T07:50:36;99300.25;;;-0.02;69.97
49178;BME280;35016;55.674;37.468;2022-11-20T07:53:04;99321.28;;;0.14;69.78
49178;BME280;35016;55.674;37.468;2022-11-20T07:55:32;99315.56;;;0.17;69.51
49178;BME280;35016;55.674;37.468;2022-11-20T07:57:59;99299.94;;;0.08;69.40
49178;BME280;35016;55.674;37.468;2022-11-20T08:00:27;99329.50;;;0.19;69.66
49178;BME280;35016;55.674;37.468;2022-11-20T08:02:54;99319.66;;;0.20;69.43
49178;BME280;35016;55.674;37.468;2022-11-20T08:05:21;99345.91;;;0.16;69.62
49178;BME280;35016;55.674;37.468;2022-11-20T08:07:48;99311.03;;;0.18;69.52
49178;BME280;35016;55.674;37.468;2022-11-20T08:10:16;99309.44;;;0.23;69.73
49178;BME280;35016;55.674;37.468;2022-11-20T08:12:49;99322.38;;;0.26;69.10
49178;BME280;35016;55.674;37.468;2022-11-20T08:15:36;99344.97;;;0.30;69.50
49178;BME280;35016;55.674;37.468;2022-11-20T08:18:05;99347.03;;;0.35;69.18
49178;BME280;35016;55.674;37.468;2022-11-20T08:20:52;99313.53;;;0.26;69.41
49178;BME280;35016;55.674;37.468;2022-11-20T08:23:19;99328.19;;;0.37;69.42
49178;BME280;35016;55.674;37.468;2022-11-20T08:25:49;99334.72;;;0.34;69.56
49178;BME280;35016;55.674;37.468;2022-11-20T08:28:18;99328.97;;;0.30;69.13
49178;BME280;35016;55.674;37.468;2022-11-20T08:30:48;99339.44;;;0.32;69.10
49178;BME280;35016;55.674;37.468;2022-11-20T08:33:17;99362.25;;;0.41;69.36
49178;BME280;35016;55.674;37.468;2022-11-20T08:35:48;99340.09;;;0.41;69.05
49178;BME280;35016;55.674;37.468;2022-11-20T08:38:15;99347.06;;;0.42;68.84
49178;BME280;35016;55.674;37.468;2022-11-20T08:40:42;99338.44;;;0.40;68.71
49178;BME280;35016;55.674;37.468;2022-11-20T08:43:29;99339.47;;;0.39;68.75
49178;BME280;35016;55.674;37.468;2022-11-20T08:45:57;99347.47;;;0.39;69.03
49178;BME280;35016;55.674;37.468;2022-11-20T08:48:24;99351.97;;;0.38;69.37
49178;BME280;35016;55.674;37.468;2022-11-20T08:50:51;99360.44;;;0.48;69.05
49178;BME280;35016;55.674;37.468;2022-11-20T08:53:18;99357.13;;;0.40;69.09
49178;BME280;35016;55.674;37.468;2022-11-20T08:55:45;99382.41;;;0.50;69.03
49178;BME280;35016;55.674;37.468;2022-11-20T08:58:12;99375.00;;;0.46;69.16
49178;BME280;35016;55.674;37.468;2022-11-20T09:00:39;99382.59;;;0.49;69.19
49178;BME280;35016;55.674;37.468;2022-11-20T09:03:06;99364.41;;;0.24;69.23
49178;BME280;35016;55.674;37.468;2022-11-20T09:05:33;99385.25;;;0.42;68.97
49178;BME280;35016;55.674;37.468;2022-11-20T09:08:00;99397.31;;;0.38;69.50
49178;BME280;35016;55.674;37.468;2022-11-20T09:10:27;99396.06;;;0.34;69.25
49178;BME280;35016;55.674;37.468;2022-11-20T09:12:55;99408.38;;;0.35;69.16
49178;BME280;35016;55.674;37.468;2022-11-20T09:15:23;99416.38;;;0.35;69.47
49178;BME280;35016;55.674;37.468;2022-11-20T09:17:55;99419.44;;;0.32;69.47
49178;BME280;35016;55.674;37.468;2022-11-20T09:20:22;99412.59;;;0.23;69.63
49178;BME280;35016;55.674;37.468;2022-11-20T09:22:49;99418.72;;;0.17;69.26
49178;BME280;35016;55.674;37.468;2022-11-20T09:25:17;99430.59;;;0.14;69.81
49178;BME280;35016;55.674;37.468;2022-11-20T09:27:44;99445.56;;;0.15;69.72
49178;BME280;35016;55.674;37.468;2022-11-20T09:30:14;99472.22;;;0.15;69.93
49178;BME280;35016;55.674;37.468;2022-11-20T09:32:42;99467.91;;;0.14;69.89
49178;BME280;35016;55.674;37.468;2022-11-20T09:35:09;99450.28;;;0.13;69.78
49178;BME280;35016;55.674;37.468;2022-11-20T09:37:37;99457.00;;;0.09;69.92
49178;BME280;35016;55.674;37.468;2022-11-20T09:40:05;99453.13;;;0.12;69.57
49178;BME280;35016;55.674;37.468;2022-11-20T09:43:45;99447.38;;;0.08;70.14
49178;BME280;35016;55.674;37.468;2022-11-20T09:46:07;99445.91;;;0.06;70.15
49178;BME280;35016;55.674;37.468;2022-11-20T09:56:37;99449.78;;;0.03;70.28
49178;BME280;35016;55.674;37.468;2022-11-20T09:59:11;99455.13;;;0.03;70.27
49178;BME280;35016;55.674;37.468;2022-11-20T10:01:41;99455.50;;;0.00;70.32
49178;BME280;35016;55.674;37.468;2022-11-20T10:04:19;99447.03;;;-0.04;70.73
49178;BME280;35016;55.674;37.468;2022-11-20T10:06:49;99454.53;;;0.08;70.27
49178;BME280;35016;55.674;37.468;2022-11-20T10:09:43;99445.19;;;-0.03;70.24
49178;BME280;35016;55.674;37.468;2022-11-20T10:12:31;99461.66;;;0.01;70.08
49178;BME280;35016;55.674;37.468;2022-11-20T10:23:56;99468.44;;;-0.18;70.24
49178;BME280;35016;55.674;37.468;2022-11-20T10:31:33;99467.50;;;-0.11;70.30
49178;BME280;35016;55.674;37.468;2022-11-20T10:34:18;99456.16;;;-0.19;70.36
49178;BME280;35016;55.674;37.468;2022-11-20T10:36:54;99481.97;;;-0.20;70.70
49178;BME280;35016;55.674;37.468;2022-11-20T10:39:31;99461.78;;;-0.29;70.55
49178;BME280;35016;55.674;37.468;2022-11-20T10:42:00;99475.47;;;-0.32;70.73
49178;BME280;35016;55.674;37.468;2022-11-20T10:44:29;99467.19;;;-0.44;71.08
49178;BME280;35016;55.674;37.468;2022-11-20T10:47:22;99468.63;;;-0.41;70.86
49178;BME280;35016;55.674;37.468;2022-11-20T10:49:52;99483.28;;;-0.31;70.97
49178;BME280;35016;55.674;37.468;2022-11-20T10:52:41;99471.75;;;-0.38;70.87
49178;BME280;35016;55.674;37.468;2022-11-20T10:55:30;99496.41;;;-0.29;70.56
49178;BME280;35016;55.674;37.468;2022-11-20T11:01:15;99508.34;;;-0.46;70.71
49178;BME280;35016;55.674;37.468;2022-11-20T11:03:55;99488.06;;;-0.62;71.12
49178;BME280;35016;55.674;37.468;2022-11-20T11:06:35;99498.00;;;-0.56;70.88
49178;BME280;35016;55.674;37.468;2022-11-20T11:09:18;99521.66;;;-0.61;70.71
49178;BME280;35016;55.674;37.468;2022-11-20T11:11:48;99506.56;;;-0.75;70.98
49178;BME280;35016;55.674;37.468;2022-11-20T11:14:15;99496.66;;;-0.81;70.61
49178;BME280;35016;55.674;37.468;2022-11-20T11:16:54;99518.22;;;-0.76;70.37
49178;BME280;35016;55.674;37.468;2022-11-20T11:19:21;99502.69;;;-0.87;70.45
49178;BME280;35016;55.674;37.468;2022-11-20T11:21:58;99493.44;;;-0.91;70.34
49178;BME280;35016;55.674;37.468;2022-11-20T11:24:27;99501.44;;;-0.91;70.39
49178;BME280;35016;55.674;37.468;2022-11-20T11:27:13;99508.84;;;-0.87;70.60
49178;BME280;35016;55.674;37.468;2022-11-20T11:29:44;99505.94;;;-0.92;70.23
49178;BME280;35016;55.674;37.468;2022-11-20T11:34:40;99515.94;;;-0.94;70.26
49178;BME280;35016;55.674;37.468;2022-11-20T11:37:16;99515.19;;;-0.88;70.15
49178;BME280;35016;55.674;37.468;2022-11-20T11:39:45;99502.63;;;-0.94;70.33
49178;BME280;35016;55.674;37.468;2022-11-20T11:42:30;99508.13;;;-0.96;70.28
49178;BME280;35016;55.674;37.468;2022-11-20T11:44:59;99515.75;;;-0.93;70.21
49178;BME280;35016;55.674;37.468;2022-11-20T11:56:03;99513.47;;;-0.96;69.35
49178;BME280;35016;55.674;37.468;2022-11-20T11:58:45;99528.03;;;-0.91;69.08
49178;BME280;35016;55.674;37.468;2022-11-20T12:04:36;99499.25;;;-1.03;68.56
49178;BME280;35016;55.674;37.468;2022-11-20T12:06:58;99531.91;;;-0.94;69.22
49178;BME280;35016;55.674;37.468;2022-11-20T12:09:52;99527.69;;;-1.03;69.25
49178;BME280;35016;55.674;37.468;2022-11-20T12:12:24;99527.31;;;-1.00;69.02
49178;BME280;35016;55.674;37.468;2022-11-20T12:14:55;99529.97;;;-1.00;69.23
49178;BME280;35016;55.674;37.468;2022-11-20T12:17:23;99506.13;;;-1.08;69.35
49178;BME280;35016;55.674;37.468;2022-11-20T12:19:51;99516.59;;;-1.07;69.42
49178;BME280;35016;55.674;37.468;2022-11-20T12:22:44;99518.25;;;-1.06;68.67
49178;BME280;35016;55.674;37.468;2022-11-20T12:25:22;99519.06;;;-1.05;69.20
49178;BME280;35016;55.674;37.468;2022-11-20T12:28:20;99518.06;;;-1.04;69.24
49178;BME280;35016;55.674;37.468;2022-11-20T12:36:09;99519.19;;;-1.13;69.34
49178;BME280;35016;55.674;37.468;2022-11-20T12:38:48;99524.00;;;-1.17;69.59
49178;BME280;35016;55.674;37.468;2022-11-20T12:44:59;99523.47;;;-1.27;69.26
49178;BME280;35016;55.674;37.468;2022-11-20T12:48:10;99531.44;;;-1.27;69.57
49178;BME280;35016;55.674;37.468;2022-11-20T13:05:21;99543.19;;;-1.36;69.86
49178;BME280;35016;55.674;37.468;2022-11-20T13:07:52;99547.69;;;-1.37;69.56
49178;BME280;35016;55.674;37.468;2022-11-20T13:15:45;99544.38;;;-1.39;69.67
49178;BME280;35016;55.674;37.468;2022-11-20T13:18:17;99547.22;;;-1.40;69.93
49178;BME280;35016;55.674;37.468;2022-11-20T13:20:45;99539.88;;;-1.38;69.98
49178;BME280;35016;55.674;37.468;2022-11-20T13:23:23;99534.44;;;-1.45;69.59
49178;BME280;35016;55.674;37.468;2022-11-20T13:26:06;99543.56;;;-1.39;69.63
49178;BME280;35016;55.674;37.468;2022-11-20T13:28:33;99554.19;;;-1.39;69.67
49178;BME280;35016;55.674;37.468;2022-11-20T13:31:01;99557.84;;;-1.40;69.75
49178;BME280;35016;55.674;37.468;2022-11-20T13:33:33;99565.09;;;-1.34;69.87
49178;BME280;35016;55.674;37.468;2022-11-20T13:36:05;99554.72;;;-1.44;69.83
49178;BME280;35016;55.674;37.468;2022-11-20T13:39:02;99567.41;;;-1.31;69.29
49178;BME280;35016;55.674;37.468;2022-11-20T13:41:36;99585.38;;;-1.33;69.14
49178;BME280;35016;55.674;37.468;2022-11-20T13:44:38;99559.22;;;-1.30;69.49
49178;BME280;35016;55.674;37.468;2022-11-20T13:49:47;99564.81;;;-1.39;69.45
49178;BME280;35016;55.674;37.468;2022-11-20T13:58:04;99579.50;;;-1.43;69.46
49178;BME280;35016;55.674;37.468;2022-11-20T14:00:33;99556.97;;;-1.56;69.85
49178;BME280;35016;55.674;37.468;2022-11-20T14:05:40;99577.53;;;-1.49;69.98
49178;BME280;35016;55.674;37.468;2022-11-20T14:16:27;99595.97;;;-1.48;69.37
49178;BME280;35016;55.674;37.468;2022-11-20T14:18:56;99591.72;;;-1.57;69.67
49178;BME280;35016;55.674;37.468;2022-11-20T14:21:28;99606.97;;;-1.51;69.81
49178;BME280;35016;55.674;37.468;2022-11-20T14:24:06;99604.44;;;-1.44;69.73
49178;BME280;35016;55.674;37.468;2022-11-20T14:26:33;99596.78;;;-1.47;69.75
49178;BME280;35016;55.674;37.468;2022-11-20T14:29:01;99588.16;;;-1.49;69.92
49178;BME280;35016;55.674;37.468;2022-11-20T14:31:28;99590.81;;;-1.49;69.77
49178;BME280;35016;55.674;37.468;2022-11-20T14:33:57;99599.25;;;-1.46;69.85
49178;BME280;35016;55.674;37.468;2022-11-20T14:36:25;99604.44;;;-1.44;70.04
49178;BME280;35016;55.674;37.468;2022-11-20T14:38:52;99611.88;;;-1.40;69.77
49178;BME280;35016;55.674;37.468;2022-11-20T14:41:23;99620.84;;;-1.41;69.73
49178;BME280;35016;55.674;37.468;2022-11-20T14:44:04;99628.94;;;-1.34;69.57
49178;BME280;35016;55.674;37.468;2022-11-20T14:46:53;99637.56;;;-1.32;69.52
49178;BME280;35016;55.674;37.468;2022-11-20T14:49:22;99615.63;;;-1.34;69.47
49178;BME280;35016;55.674;37.468;2022-11-20T14:52:02;99626.00;;;-1.25;69.07